sensor_id;sensor_type;location;lat;lon;timestamp;P1;durP1;ratioP1;P2;durP2;ratioP2
18752;SDS011;9505;50.882;5.350;2023-02-22T00:01:08;90.45;;;17.92;;
18752;SDS011;9505;50.882;5.350;2023-02-22T00:03:51;96.13;;;21.10;;
18752;SDS011;9505;50.882;5.350;2023-02-22T00:06:18;81.28;;;18.10;;
18752;SDS011;9505;50.882;5.350;2023-02-22T00:08:46;66.63;;;16.52;;
18752;SDS011;9505;50.882;5.350;2023-02-22T00:11:13;100.47;;;20.10;;
18752;SDS011;9505;50.882;5.350;2023-02-22T00:13:39;81.47;;;16.73;;
18752;SDS011;9505;50.882;5.350;2023-02-22T00:16:09;84.32;;;18.85;;
18752;SDS011;9505;50.882;5.350;2023-02-22T00:18:38;175.60;;;22.10;;
18752;SDS011;9505;50.882;5.350;2023-02-22T00:21:04;88.85;;;19.77;;
18752;SDS011;9505;50.882;5.350;2023-02-22T00:23:34;65.38;;;16.45;;
18752;SDS011;9505;50.882;5.350;2023-02-22T00:26:03;104.38;;;18.08;;
18752;SDS011;9505;50.882;5.350;2023-02-22T00:28:33;91.32;;;18.55;;
18752;SDS011;9505;50.882;5.350;2023-02-22T00:31:03;66.65;;;16.55;;
18752;SDS011;9505;50.882;5.350;2023-02-22T00:33:30;74.00;;;16.88;;
18752;SDS011;9505;50.882;5.350;2023-02-22T00:35:56;70.28;;;17.65;;
18752;SDS011;9505;50.882;5.350;2023-02-22T00:38:22;64.43;;;16.35;;
18752;SDS011;9505;50.882;5.350;2023-02-22T00:40:47;72.65;;;15.73;;
18752;SDS011;9505;50.882;5.350;2023-02-22T00:43:13;82.78;;;18.25;;
18752;SDS011;9505;50.882;5.350;2023-02-22T00:45:39;210.98;;;23.05;;
18752;SDS011;9505;50.882;5.350;2023-02-22T00:48:05;246.65;;;24.15;;
18752;SDS011;9505;50.882;5.350;2023-02-22T00:50:32;210.93;;;19.98;;
18752;SDS011;9505;50.882;5.350;2023-02-22T00:52:59;154.43;;;19.75;;
18752;SDS011;9505;50.882;5.350;2023-02-22T00:55:27;195.60;;;24.27;;
18752;SDS011;9505;50.882;5.350;2023-02-22T00:57:55;237.15;;;24.30;;
18752;SDS011;9505;50.882;5.350;2023-02-22T01:00:23;69.18;;;16.90;;
18752;SDS011;9505;50.882;5.350;2023-02-22T01:02:50;53.53;;;13.65;;
18752;SDS011;9505;50.882;5.350;2023-02-22T01:05:18;129.57;;;21.60;;
18752;SDS011;9505;50.882;5.350;2023-02-22T01:07:46;64.72;;;16.58;;
18752;SDS011;9505;50.882;5.350;2023-02-22T01:10:13;122.00;;;19.33;;
18752;SDS011;9505;50.882;5.350;2023-02-22T01:12:39;100.72;;;17.30;;
18752;SDS011;9505;50.882;5.350;2023-02-22T01:15:06;132.80;;;17.75;;
18752;SDS011;9505;50.882;5.350;2023-02-22T01:17:36;220.15;;;24.75;;
18752;SDS011;9505;50.882;5.350;2023-02-22T01:20:04;158.27;;;20.17;;
18752;SDS011;9505;50.882;5.350;2023-02-22T01:22:36;172.68;;;20.75;;
18752;SDS011;9505;50.882;5.350;2023-02-22T01:25:03;93.60;;;17.23;;
18752;SDS011;9505;50.882;5.350;2023-02-22T01:27:31;71.85;;;17.20;;
18752;SDS011;9505;50.882;5.350;2023-02-22T01:29:57;95.32;;;18.45;;
18752;SDS011;9505;50.882;5.350;2023-02-22T01:32:23;75.65;;;15.80;;
18752;SDS011;9505;50.882;5.350;2023-02-22T01:34:51;82.70;;;17.17;;
18752;SDS011;9505;50.882;5.350;2023-02-22T01:37:17;83.25;;;17.05;;
18752;SDS011;9505;50.882;5.350;2023-02-22T01:39:43;58.70;;;14.85;;
18752;SDS011;9505;50.882;5.350;2023-02-22T01:42:08;76.28;;;16.80;;
18752;SDS011;9505;50.882;5.350;2023-02-22T01:44:35;66.60;;;15.63;;
18752;SDS011;9505;50.882;5.350;2023-02-22T01:47:02;61.38;;;15.68;;
18752;SDS011;9505;50.882;5.350;2023-02-22T01:49:40;72.22;;;15.82;;
18752;SDS011;9505;50.882;5.350;2023-02-22T01:52:12;57.42;;;13.93;;
18752;SDS011;9505;50.882;5.350;2023-02-22T01:54:41;55.15;;;14.75;;
18752;SDS011;9505;50.882;5.350;2023-02-22T01:59:54;64.00;;;14.82;;
18752;SDS011;9505;50.882;5.350;2023-02-22T02:02:23;60.20;;;14.90;;
18752;SDS011;9505;50.882;5.350;2023-02-22T02:04:50;203.65;;;23.02;;
18752;SDS011;9505;50.882;5.350;2023-02-22T02:07:18;73.00;;;15.70;;
18752;SDS011;9505;50.882;5.350;2023-02-22T02:09:59;70.55;;;16.15;;
18752;SDS011;9505;50.882;5.350;2023-02-22T02:12:28;182.38;;;24.85;;
18752;SDS011;9505;50.882;5.350;2023-02-22T02:17:41;56.53;;;14.65;;
18752;SDS011;9505;50.882;5.350;2023-02-22T02:28:54;60.58;;;15.23;;
18752;SDS011;9505;50.882;5.350;2023-02-22T02:34:20;63.22;;;16.60;;
18752;SDS011;9505;50.882;5.350;2023-02-22T02:39:35;54.20;;;16.73;;
18752;SDS011;9505;50.882;5.350;2023-02-22T02:42:07;59.55;;;14.38;;
18752;SDS011;9505;50.882;5.350;2023-02-22T02:44:38;67.32;;;15.95;;
18752;SDS011;9505;50.882;5.350;2023-02-22T02:47:29;61.45;;;15.98;;
18752;SDS011;9505;50.882;5.350;2023-02-22T02:50:04;64.30;;;15.10;;
18752;SDS011;9505;50.882;5.350;2023-02-22T02:52:40;79.70;;;17.80;;
18752;SDS011;9505;50.882;5.350;2023-02-22T02:55:06;62.15;;;15.88;;
18752;SDS011;9505;50.882;5.350;2023-02-22T02:57:35;83.45;;;17.73;;
18752;SDS011;9505;50.882;5.350;2023-02-22T03:00:02;68.18;;;17.17;;
18752;SDS011;9505;50.882;5.350;2023-02-22T03:05:41;68.45;;;15.45;;
18752;SDS011;9505;50.882;5.350;2023-02-22T03:11:28;132.40;;;18.90;;
18752;SDS011;9505;50.882;5.350;2023-02-22T03:14:06;52.05;;;14.63;;
18752;SDS011;9505;50.882;5.350;2023-02-22T03:24:54;54.28;;;15.25;;
18752;SDS011;9505;50.882;5.350;2023-02-22T03:27:45;44.63;;;13.77;;
18752;SDS011;9505;50.882;5.350;2023-02-22T03:30:29;55.55;;;15.38;;
18752;SDS011;9505;50.882;5.350;2023-02-22T03:33:02;58.78;;;15.70;;
18752;SDS011;9505;50.882;5.350;2023-02-22T03:36:12;49.92;;;14.90;;
18752;SDS011;9505;50.882;5.350;2023-02-22T03:38:38;60.50;;;16.77;;
18752;SDS011;9505;50.882;5.350;2023-02-22T03:41:06;54.05;;;15.15;;
18752;SDS011;9505;50.882;5.350;2023-02-22T03:43:39;54.67;;;15.73;;
18752;SDS011;9505;50.882;5.350;2023-02-22T03:46:09;56.95;;;16.58;;
18752;SDS011;9505;50.882;5.350;2023-02-22T03:51:22;56.80;;;15.77;;
18752;SDS011;9505;50.882;5.350;2023-02-22T03:53:48;51.22;;;14.40;;
18752;SDS011;9505;50.882;5.350;2023-02-22T03:56:17;65.38;;;16.88;;
18752;SDS011;9505;50.882;5.350;2023-02-22T03:58:52;48.90;;;14.25;;
18752;SDS011;9505;50.882;5.350;2023-02-22T04:01:18;59.72;;;15.70;;
18752;SDS011;9505;50.882;5.350;2023-02-22T04:03:47;74.75;;;16.40;;
18752;SDS011;9505;50.882;5.350;2023-02-22T04:06:13;60.00;;;16.58;;
18752;SDS011;9505;50.882;5.350;2023-02-22T04:08:38;57.08;;;17.02;;
18752;SDS011;9505;50.882;5.350;2023-02-22T04:11:04;63.13;;;16.35;;
18752;SDS011;9505;50.882;5.350;2023-02-22T04:13:30;56.47;;;16.50;;
18752;SDS011;9505;50.882;5.350;2023-02-22T04:15:55;55.60;;;15.50;;
18752;SDS011;9505;50.882;5.350;2023-02-22T04:18:21;57.53;;;15.32;;
18752;SDS011;9505;50.882;5.350;2023-02-22T04:20:46;59.17;;;16.10;;
18752;SDS011;9505;50.882;5.350;2023-02-22T04:23:12;60.97;;;18.10;;
18752;SDS011;9505;50.882;5.350;2023-02-22T04:25:37;63.28;;;16.73;;
18752;SDS011;9505;50.882;5.350;2023-02-22T04:28:03;58.13;;;15.75;;
18752;SDS011;9505;50.882;5.350;2023-02-22T04:30:29;64.53;;;15.95;;
18752;SDS011;9505;50.882;5.350;2023-02-22T04:32:55;62.42;;;17.45;;
18752;SDS011;9505;50.882;5.350;2023-02-22T04:35:21;58.30;;;15.88;;
18752;SDS011;9505;50.882;5.350;2023-02-22T04:37:47;59.10;;;17.08;;
18752;SDS011;9505;50.882;5.350;2023-02-22T04:40:14;64.57;;;15.27;;
18752;SDS011;9505;50.882;5.350;2023-02-22T04:42:41;59.08;;;16.00;;
18752;SDS011;9505;50.882;5.350;2023-02-22T04:45:07;61.53;;;16.48;;
18752;SDS011;9505;50.882;5.350;2023-02-22T04:47:34;62.50;;;16.50;;
18752;SDS011;9505;50.882;5.350;2023-02-22T04:50:01;54.75;;;15.02;;
18752;SDS011;9505;50.882;5.350;2023-02-22T04:52:31;56.85;;;15.90;;
18752;SDS011;9505;50.882;5.350;2023-02-22T04:54:56;58.13;;;15.35;;
18752;SDS011;9505;50.882;5.350;2023-02-22T04:57:22;65.20;;;18.08;;
18752;SDS011;9505;50.882;5.350;2023-02-22T04:59:48;74.80;;;18.73;;
18752;SDS011;9505;50.882;5.350;2023-02-22T05:02:15;50.83;;;15.10;;
18752;SDS011;9505;50.882;5.350;2023-02-22T05:04:41;59.15;;;16.20;;
18752;SDS011;9505;50.882;5.350;2023-02-22T05:07:06;61.70;;;16.40;;
18752;SDS011;9505;50.882;5.350;2023-02-22T05:09:32;54.15;;;15.57;;
18752;SDS011;9505;50.882;5.350;2023-02-22T05:11:57;58.10;;;16.85;;
18752;SDS011;9505;50.882;5.350;2023-02-22T05:14:23;60.88;;;16.10;;
18752;SDS011;9505;50.882;5.350;2023-02-22T05:16:51;63.00;;;17.15;;
18752;SDS011;9505;50.882;5.350;2023-02-22T05:19:18;67.45;;;17.75;;
18752;SDS011;9505;50.882;5.350;2023-02-22T05:21:43;70.07;;;16.88;;
18752;SDS011;9505;50.882;5.350;2023-02-22T05:24:09;53.72;;;15.93;;
18752;SDS011;9505;50.882;5.350;2023-02-22T05:26:35;64.25;;;16.38;;
18752;SDS011;9505;50.882;5.350;2023-02-22T05:29:00;60.70;;;15.32;;
18752;SDS011;9505;50.882;5.350;2023-02-22T05:31:26;60.20;;;16.90;;
18752;SDS011;9505;50.882;5.350;2023-02-22T05:33:51;56.47;;;15.25;;
18752;SDS011;9505;50.882;5.350;2023-02-22T05:36:17;56.08;;;16.60;;
18752;SDS011;9505;50.882;5.350;2023-02-22T05:38:42;55.88;;;15.93;;
18752;SDS011;9505;50.882;5.350;2023-02-22T05:41:09;59.35;;;16.67;;
18752;SDS011;9505;50.882;5.350;2023-02-22T05:43:36;56.50;;;14.55;;
18752;SDS011;9505;50.882;5.350;2023-02-22T05:46:02;57.97;;;16.67;;
18752;SDS011;9505;50.882;5.350;2023-02-22T05:48:28;52.28;;;15.05;;
18752;SDS011;9505;50.882;5.350;2023-02-22T05:50:55;50.75;;;14.45;;
18752;SDS011;9505;50.882;5.350;2023-02-22T05:53:22;47.17;;;14.93;;
18752;SDS011;9505;50.882;5.350;2023-02-22T05:55:48;50.28;;;15.82;;
18752;SDS011;9505;50.882;5.350;2023-02-22T05:58:14;52.90;;;14.75;;
18752;SDS011;9505;50.882;5.350;2023-02-22T06:00:40;55.78;;;15.65;;
18752;SDS011;9505;50.882;5.350;2023-02-22T06:03:06;63.30;;;16.58;;
18752;SDS011;9505;50.882;5.350;2023-02-22T06:05:33;65.18;;;15.70;;
18752;SDS011;9505;50.882;5.350;2023-02-22T06:08:00;49.10;;;14.27;;
18752;SDS011;9505;50.882;5.350;2023-02-22T06:10:26;46.47;;;13.80;;
18752;SDS011;9505;50.882;5.350;2023-02-22T06:12:52;56.85;;;15.02;;
18752;SDS011;9505;50.882;5.350;2023-02-22T06:15:20;56.70;;;15.60;;
18752;SDS011;9505;50.882;5.350;2023-02-22T06:17:46;65.35;;;15.95;;
18752;SDS011;9505;50.882;5.350;2023-02-22T06:20:13;64.03;;;14.70;;
18752;SDS011;9505;50.882;5.350;2023-02-22T06:22:41;60.17;;;15.82;;
18752;SDS011;9505;50.882;5.350;2023-02-22T06:25:07;45.40;;;14.40;;
18752;SDS011;9505;50.882;5.350;2023-02-22T06:27:34;47.90;;;13.05;;
18752;SDS011;9505;50.882;5.350;2023-02-22T06:29:59;48.65;;;12.63;;
18752;SDS011;9505;50.882;5.350;2023-02-22T06:32:26;46.83;;;12.45;;
18752;SDS011;9505;50.882;5.350;2023-02-22T06:34:52;39.33;;;12.52;;
18752;SDS011;9505;50.882;5.350;2023-02-22T06:37:17;47.67;;;12.30;;
18752;SDS011;9505;50.882;5.350;2023-02-22T06:39:43;39.55;;;11.10;;
18752;SDS011;9505;50.882;5.350;2023-02-22T06:42:09;44.40;;;11.77;;
18752;SDS011;9505;50.882;5.350;2023-02-22T06:44:34;38.97;;;10.98;;
18752;SDS011;9505;50.882;5.350;2023-02-22T06:47:00;29.10;;;9.60;;
18752;SDS011;9505;50.882;5.350;2023-02-22T06:49:26;40.78;;;11.93;;
18752;SDS011;9505;50.882;5.350;2023-02-22T06:51:52;46.03;;;13.35;;
18752;SDS011;9505;50.882;5.350;2023-02-22T06:54:18;46.05;;;13.63;;
18752;SDS011;9505;50.882;5.350;2023-02-22T06:56:44;42.55;;;13.25;;
18752;SDS011;9505;50.882;5.350;2023-02-22T06:59:10;46.63;;;13.18;;
18752;SDS011;9505;50.882;5.350;2023-02-22T07:01:36;34.17;;;10.18;;
18752;SDS011;9505;50.882;5.350;2023-02-22T07:04:04;43.60;;;12.25;;
18752;SDS011;9505;50.882;5.350;2023-02-22T07:06:29;41.42;;;12.68;;
18752;SDS011;9505;50.882;5.350;2023-02-22T07:08:55;50.90;;;13.15;;
18752;SDS011;9505;50.882;5.350;2023-02-22T07:11:21;43.40;;;12.88;;
18752;SDS011;9505;50.882;5.350;2023-02-22T07:13:46;46.20;;;11.73;;
18752;SDS011;9505;50.882;5.350;2023-02-22T07:16:12;48.05;;;12.50;;
18752;SDS011;9505;50.882;5.350;2023-02-22T07:18:38;37.10;;;11.50;;
18752;SDS011;9505;50.882;5.350;2023-02-22T07:21:03;49.92;;;14.27;;
18752;SDS011;9505;50.882;5.350;2023-02-22T07:23:29;59.47;;;14.77;;
18752;SDS011;9505;50.882;5.350;2023-02-22T07:25:55;42.65;;;12.43;;
18752;SDS011;9505;50.882;5.350;2023-02-22T07:28:23;42.97;;;13.70;;
18752;SDS011;9505;50.882;5.350;2023-02-22T07:30:49;49.88;;;14.77;;
18752;SDS011;9505;50.882;5.350;2023-02-22T07:33:14;47.28;;;14.45;;
18752;SDS011;9505;50.882;5.350;2023-02-22T07:35:43;57.08;;;15.90;;
18752;SDS011;9505;50.882;5.350;2023-02-22T07:38:11;53.28;;;14.65;;
18752;SDS011;9505;50.882;5.350;2023-02-22T07:40:38;57.67;;;17.05;;
18752;SDS011;9505;50.882;5.350;2023-02-22T07:43:12;55.10;;;15.90;;
18752;SDS011;9505;50.882;5.350;2023-02-22T07:45:41;43.75;;;15.55;;
18752;SDS011;9505;50.882;5.350;2023-02-22T07:48:07;63.35;;;17.80;;
18752;SDS011;9505;50.882;5.350;2023-02-22T07:50:33;53.88;;;15.75;;
18752;SDS011;9505;50.882;5.350;2023-02-22T07:53:00;57.75;;;18.48;;
18752;SDS011;9505;50.882;5.350;2023-02-22T07:55:28;53.83;;;17.65;;
18752;SDS011;9505;50.882;5.350;2023-02-22T07:57:56;57.97;;;17.70;;
18752;SDS011;9505;50.882;5.350;2023-02-22T08:00:27;59.53;;;17.70;;
18752;SDS011;9505;50.882;5.350;2023-02-22T08:02:55;70.22;;;19.77;;
18752;SDS011;9505;50.882;5.350;2023-02-22T08:05:23;71.93;;;20.85;;
18752;SDS011;9505;50.882;5.350;2023-02-22T08:07:50;65.95;;;20.15;;
18752;SDS011;9505;50.882;5.350;2023-02-22T08:10:17;68.70;;;19.90;;
18752;SDS011;9505;50.882;5.350;2023-02-22T08:12:44;70.50;;;21.13;;
18752;SDS011;9505;50.882;5.350;2023-02-22T08:15:29;63.50;;;20.23;;
18752;SDS011;9505;50.882;5.350;2023-02-22T08:17:57;71.72;;;19.17;;
18752;SDS011;9505;50.882;5.350;2023-02-22T08:20:25;86.82;;;21.95;;
18752;SDS011;9505;50.882;5.350;2023-02-22T08:22:51;80.28;;;21.52;;
18752;SDS011;9505;50.882;5.350;2023-02-22T08:25:18;71.35;;;20.92;;
18752;SDS011;9505;50.882;5.350;2023-02-22T08:27:45;73.50;;;22.05;;
18752;SDS011;9505;50.882;5.350;2023-02-22T08:30:17;72.55;;;20.85;;
18752;SDS011;9505;50.882;5.350;2023-02-22T08:32:45;75.45;;;22.67;;
18752;SDS011;9505;50.882;5.350;2023-02-22T08:35:11;81.93;;;22.15;;
18752;SDS011;9505;50.882;5.350;2023-02-22T08:37:40;84.07;;;22.83;;
18752;SDS011;9505;50.882;5.350;2023-02-22T08:40:10;89.20;;;23.55;;
18752;SDS011;9505;50.882;5.350;2023-02-22T08:42:36;78.25;;;22.83;;
18752;SDS011;9505;50.882;5.350;2023-02-22T08:45:02;72.95;;;24.33;;
18752;SDS011;9505;50.882;5.350;2023-02-22T08:47:28;86.75;;;24.52;;
18752;SDS011;9505;50.882;5.350;2023-02-22T08:49:54;76.28;;;24.30;;
18752;SDS011;9505;50.882;5.350;2023-02-22T08:52:20;103.65;;;27.83;;
18752;SDS011;9505;50.882;5.350;2023-02-22T08:54:45;77.28;;;25.42;;
18752;SDS011;9505;50.882;5.350;2023-02-22T08:57:12;93.13;;;27.85;;
18752;SDS011;9505;50.882;5.350;2023-02-22T08:59:38;87.22;;;25.55;;
18752;SDS011;9505;50.882;5.350;2023-02-22T09:02:04;90.38;;;25.98;;
18752;SDS011;9505;50.882;5.350;2023-02-22T09:04:37;92.55;;;26.02;;
18752;SDS011;9505;50.882;5.350;2023-02-22T09:07:03;85.45;;;26.52;;
18752;SDS011;9505;50.882;5.350;2023-02-22T09:09:28;81.30;;;25.52;;
18752;SDS011;9505;50.882;5.350;2023-02-22T09:11:54;77.50;;;24.88;;
18752;SDS011;9505;50.882;5.350;2023-02-22T09:14:19;72.68;;;21.92;;
18752;SDS011;9505;50.882;5.350;2023-02-22T09:16:45;68.53;;;22.23;;
18752;SDS011;9505;50.882;5.350;2023-02-22T09:19:11;81.97;;;21.88;;
18752;SDS011;9505;50.882;5.350;2023-02-22T09:21:36;62.88;;;18.90;;
18752;SDS011;9505;50.882;5.350;2023-02-22T09:24:04;52.55;;;15.48;;
18752;SDS011;9505;50.882;5.350;2023-02-22T09:26:35;46.22;;;14.15;;
18752;SDS011;9505;50.882;5.350;2023-02-22T09:29:06;48.08;;;13.13;;
18752;SDS011;9505;50.882;5.350;2023-02-22T09:31:39;50.42;;;13.85;;
18752;SDS011;9505;50.882;5.350;2023-02-22T09:34:06;46.42;;;11.90;;
18752;SDS011;9505;50.882;5.350;2023-02-22T09:36:39;53.80;;;12.98;;
18752;SDS011;9505;50.882;5.350;2023-02-22T09:39:06;51.10;;;12.70;;
18752;SDS011;9505;50.882;5.350;2023-02-22T09:41:38;42.55;;;11.20;;
18752;SDS011;9505;50.882;5.350;2023-02-22T09:47:08;46.47;;;11.57;;
18752;SDS011;9505;50.882;5.350;2023-02-22T09:49:40;36.88;;;10.73;;
18752;SDS011;9505;50.882;5.350;2023-02-22T09:54:48;33.33;;;9.52;;
18752;SDS011;9505;50.882;5.350;2023-02-22T09:57:22;39.88;;;10.73;;
18752;SDS011;9505;50.882;5.350;2023-02-22T10:02:39;44.30;;;11.52;;
18752;SDS011;9505;50.882;5.350;2023-02-22T10:05:48;41.97;;;9.65;;
18752;SDS011;9505;50.882;5.350;2023-02-22T10:08:35;32.83;;;8.98;;
18752;SDS011;9505;50.882;5.350;2023-02-22T10:13:52;42.10;;;9.95;;
18752;SDS011;9505;50.882;5.350;2023-02-22T10:19:39;38.95;;;9.27;;
18752;SDS011;9505;50.882;5.350;2023-02-22T10:30:03;35.58;;;8.82;;
18752;SDS011;9505;50.882;5.350;2023-02-22T10:32:40;37.22;;;9.65;;
18752;SDS011;9505;50.882;5.350;2023-02-22T10:35:17;40.33;;;10.23;;
18752;SDS011;9505;50.882;5.350;2023-02-22T10:37:47;34.38;;;9.73;;
18752;SDS011;9505;50.882;5.350;2023-02-22T10:40:18;38.50;;;9.95;;
18752;SDS011;9505;50.882;5.350;2023-02-22T10:42:47;31.15;;;8.75;;
18752;SDS011;9505;50.882;5.350;2023-02-22T10:45:22;43.60;;;9.90;;
18752;SDS011;9505;50.882;5.350;2023-02-22T10:47:51;38.40;;;9.93;;
18752;SDS011;9505;50.882;5.350;2023-02-22T10:50:19;36.75;;;9.25;;
18752;SDS011;9505;50.882;5.350;2023-02-22T10:52:46;38.55;;;9.48;;
18752;SDS011;9505;50.882;5.350;2023-02-22T10:55:13;38.88;;;10.05;;
18752;SDS011;9505;50.882;5.350;2023-02-22T10:57:40;35.92;;;9.63;;
18752;SDS011;9505;50.882;5.350;2023-02-22T11:02:51;40.55;;;10.52;;
18752;SDS011;9505;50.882;5.350;2023-02-22T11:08:13;38.22;;;9.68;;
18752;SDS011;9505;50.882;5.350;2023-02-22T11:10:46;39.67;;;10.27;;
18752;SDS011;9505;50.882;5.350;2023-02-22T11:13:22;44.22;;;10.27;;
18752;SDS011;9505;50.882;5.350;2023-02-22T11:15:50;44.28;;;10.85;;
18752;SDS011;9505;50.882;5.350;2023-02-22T11:18:21;44.42;;;10.80;;
18752;SDS011;9505;50.882;5.350;2023-02-22T11:20:57;46.40;;;10.95;;
18752;SDS011;9505;50.882;5.350;2023-02-22T11:23:28;40.95;;;10.35;;
18752;SDS011;9505;50.882;5.350;2023-02-22T11:26:02;42.03;;;10.30;;
18752;SDS011;9505;50.882;5.350;2023-02-22T11:28:34;35.00;;;9.63;;
18752;SDS011;9505;50.882;5.350;2023-02-22T11:31:11;48.50;;;11.40;;
18752;SDS011;9505;50.882;5.350;2023-02-22T11:33:37;43.58;;;11.38;;
18752;SDS011;9505;50.882;5.350;2023-02-22T11:36:04;37.20;;;9.52;;
18752;SDS011;9505;50.882;5.350;2023-02-22T11:38:36;45.78;;;11.88;;
18752;SDS011;9505;50.882;5.350;2023-02-22T11:43:38;41.45;;;11.02;;
18752;SDS011;9505;50.882;5.350;2023-02-22T11:46:05;58.38;;;11.70;;
18752;SDS011;9505;50.882;5.350;2023-02-22T11:48:36;43.60;;;11.10;;
18752;SDS011;9505;50.882;5.350;2023-02-22T11:54:01;42.85;;;11.60;;
18752;SDS011;9505;50.882;5.350;2023-02-22T11:56:55;45.17;;;11.15;;
18752;SDS011;9505;50.882;5.350;2023-02-22T12:02:50;50.17;;;12.15;;
18752;SDS011;9505;50.882;5.350;2023-02-22T12:13:45;46.25;;;12.13;;
18752;SDS011;9505;50.882;5.350;2023-02-22T12:21:53;39.58;;;11.27;;
18752;SDS011;9505;50.882;5.350;2023-02-22T12:24:26;45.63;;;11.70;;
18752;SDS011;9505;50.882;5.350;2023-02-22T12:27:06;42.15;;;12.35;;
18752;SDS011;9505;50.882;5.350;2023-02-22T12:29:40;44.47;;;12.43;;
18752;SDS011;9505;50.882;5.350;2023-02-22T12:32:15;45.47;;;11.95;;
18752;SDS011;9505;50.882;5.350;2023-02-22T12:34:49;44.20;;;12.10;;
18752;SDS011;9505;50.882;5.350;2023-02-22T12:37:21;45.13;;;12.98;;
18752;SDS011;9505;50.882;5.350;2023-02-22T12:45:03;48.13;;;13.05;;
18752;SDS011;9505;50.882;5.350;2023-02-22T12:47:41;50.17;;;14.23;;
18752;SDS011;9505;50.882;5.350;2023-02-22T12:50:19;57.35;;;14.75;;
18752;SDS011;9505;50.882;5.350;2023-02-22T12:56:01;62.45;;;15.02;;
18752;SDS011;9505;50.882;5.350;2023-02-22T12:58:50;51.75;;;14.05;;
18752;SDS011;9505;50.882;5.350;2023-02-22T13:01:27;38.90;;;11.15;;
18752;SDS011;9505;50.882;5.350;2023-02-22T13:04:00;44.65;;;12.25;;
18752;SDS011;9505;50.882;5.350;2023-02-22T13:09:32;48.40;;;12.75;;
18752;SDS011;9505;50.882;5.350;2023-02-22T13:19:54;54.55;;;13.93;;
18752;SDS011;9505;50.882;5.350;2023-02-22T13:22:28;47.10;;;13.45;;
18752;SDS011;9505;50.882;5.350;2023-02-22T13:27:40;51.05;;;12.95;;
18752;SDS011;9505;50.882;5.350;2023-02-22T13:30:23;51.70;;;14.15;;
18752;SDS011;9505;50.882;5.350;2023-02-22T13:33:13;74.20;;;17.63;;
18752;SDS011;9505;50.882;5.350;2023-02-22T13:50:20;48.38;;;12.98;;
18752;SDS011;9505;50.882;5.350;2023-02-22T13:52:59;67.00;;;14.98;;
18752;SDS011;9505;50.882;5.350;2023-02-22T13:55:31;70.00;;;16.08;;
18752;SDS011;9505;50.882;5.350;2023-02-22T13:58:09;76.40;;;16.75;;
18752;SDS011;9505;50.882;5.350;2023-02-22T14:00:44;64.32;;;14.93;;
18752;SDS011;9505;50.882;5.350;2023-02-22T14:13:16;73.00;;;16.75;;
18752;SDS011;9505;50.882;5.350;2023-02-22T14:21:09;60.15;;;14.48;;
18752;SDS011;9505;50.882;5.350;2023-02-22T14:23:37;59.40;;;15.52;;
18752;SDS011;9505;50.882;5.350;2023-02-22T14:26:11;75.80;;;16.63;;
18752;SDS011;9505;50.882;5.350;2023-02-22T14:31:53;51.00;;;14.63;;
18752;SDS011;9505;50.882;5.350;2023-02-22T14:34:40;58.17;;;14.45;;
18752;SDS011;9505;50.882;5.350;2023-02-22T14:37:07;46.97;;;13.93;;
18752;SDS011;9505;50.882;5.350;2023-02-22T14:39:41;47.25;;;13.60;;
18752;SDS011;9505;50.882;5.350;2023-02-22T14:45:00;69.07;;;17.27;;
18752;SDS011;9505;50.882;5.350;2023-02-22T14:50:52;84.32;;;17.88;;
18752;SDS011;9505;50.882;5.350;2023-02-22T14:53:53;49.42;;;14.68;;
18752;SDS011;9505;50.882;5.350;2023-02-22T14:59:20;45.10;;;13.32;;
18752;SDS011;9505;50.882;5.350;2023-02-22T15:01:48;76.38;;;17.15;;
18752;SDS011;9505;50.882;5.350;2023-02-22T15:04:28;62.63;;;16.08;;
18752;SDS011;9505;50.882;5.350;2023-02-22T15:06:56;71.97;;;17.73;;
18752;SDS011;9505;50.882;5.350;2023-02-22T15:14:27;46.47;;;14.00;;
18752;SDS011;9505;50.882;5.350;2023-02-22T15:16:57;53.92;;;15.25;;
18752;SDS011;9505;50.882;5.350;2023-02-22T15:19:29;77.85;;;18.33;;
18752;SDS011;9505;50.882;5.350;2023-02-22T15:21:57;91.80;;;19.58;;
18752;SDS011;9505;50.882;5.350;2023-02-22T15:24:28;83.63;;;18.50;;
18752;SDS011;9505;50.882;5.350;2023-02-22T15:27:13;88.57;;;19.33;;
18752;SDS011;9505;50.882;5.350;2023-02-22T15:29:42;71.75;;;18.42;;
18752;SDS011;9505;50.882;5.350;2023-02-22T15:37:42;86.40;;;20.23;;
18752;SDS011;9505;50.882;5.350;2023-02-22T15:40:13;64.03;;;18.42;;
18752;SDS011;9505;50.882;5.350;2023-02-22T15:42:42;60.47;;;17.20;;
18752;SDS011;9505;50.882;5.350;2023-02-22T15:45:13;56.55;;;18.45;;
18752;SDS011;9505;50.882;5.350;2023-02-22T15:47:41;55.63;;;16.42;;
18752;SDS011;9505;50.882;5.350;2023-02-22T15:50:13;84.25;;;20.60;;
18752;SDS011;9505;50.882;5.350;2023-02-22T15:53:03;57.63;;;17.27;;
18752;SDS011;9505;50.882;5.350;2023-02-22T15:55:38;71.78;;;18.17;;
18752;SDS011;9505;50.882;5.350;2023-02-22T15:58:09;79.80;;;20.70;;
18752;SDS011;9505;50.882;5.350;2023-02-22T16:00:58;88.32;;;20.75;;
18752;SDS011;9505;50.882;5.350;2023-02-22T16:03:26;75.68;;;19.50;;
18752;SDS011;9505;50.882;5.350;2023-02-22T16:05:58;86.82;;;20.38;;
18752;SDS011;9505;50.882;5.350;2023-02-22T16:08:25;76.20;;;19.90;;
18752;SDS011;9505;50.882;5.350;2023-02-22T16:10:57;75.80;;;18.55;;
18752;SDS011;9505;50.882;5.350;2023-02-22T16:13:27;67.13;;;19.27;;
18752;SDS011;9505;50.882;5.350;2023-02-22T16:18:36;58.15;;;17.15;;
18752;SDS011;9505;50.882;5.350;2023-02-22T16:23:28;71.50;;;19.27;;
18752;SDS011;9505;50.882;5.350;2023-02-22T16:26:05;81.78;;;21.35;;
18752;SDS011;9505;50.882;5.350;2023-02-22T16:28:53;55.95;;;16.65;;
18752;SDS011;9505;50.882;5.350;2023-02-22T16:31:30;87.55;;;20.92;;
18752;SDS011;9505;50.882;5.350;2023-02-22T16:34:01;79.13;;;21.65;;
18752;SDS011;9505;50.882;5.350;2023-02-22T16:36:35;55.20;;;17.92;;
18752;SDS011;9505;50.882;5.350;2023-02-22T16:39:03;66.07;;;19.92;;
18752;SDS011;9505;50.882;5.350;2023-02-22T16:41:31;62.65;;;19.42;;
18752;SDS011;9505;50.882;5.350;2023-02-22T16:43:57;77.30;;;20.73;;
18752;SDS011;9505;50.882;5.350;2023-02-22T16:46:22;90.95;;;22.65;;
18752;SDS011;9505;50.882;5.350;2023-02-22T16:48:48;79.55;;;21.67;;
18752;SDS011;9505;50.882;5.350;2023-02-22T16:53:48;53.20;;;19.00;;
18752;SDS011;9505;50.882;5.350;2023-02-22T16:56:15;76.40;;;20.52;;
18752;SDS011;9505;50.882;5.350;2023-02-22T16:58:44;85.22;;;22.60;;
18752;SDS011;9505;50.882;5.350;2023-02-22T17:01:10;77.32;;;21.25;;
18752;SDS011;9505;50.882;5.350;2023-02-22T17:03:36;73.25;;;20.95;;
18752;SDS011;9505;50.882;5.350;2023-02-22T17:06:03;64.75;;;19.98;;
18752;SDS011;9505;50.882;5.350;2023-02-22T17:08:29;88.15;;;22.67;;
18752;SDS011;9505;50.882;5.350;2023-02-22T17:10:55;86.22;;;23.92;;
18752;SDS011;9505;50.882;5.350;2023-02-22T17:13:24;77.47;;;22.13;;
18752;SDS011;9505;50.882;5.350;2023-02-22T17:15:51;65.53;;;21.30;;
18752;SDS011;9505;50.882;5.350;2023-02-22T17:18:19;62.05;;;20.98;;
18752;SDS011;9505;50.882;5.350;2023-02-22T17:20:51;83.97;;;24.85;;
18752;SDS011;9505;50.882;5.350;2023-02-22T17:23:17;102.05;;;26.60;;
18752;SDS011;9505;50.882;5.350;2023-02-22T17:25:45;86.05;;;25.67;;
18752;SDS011;9505;50.882;5.350;2023-02-22T17:28:15;91.43;;;25.48;;
18752;SDS011;9505;50.882;5.350;2023-02-22T17:30:40;91.53;;;26.00;;
18752;SDS011;9505;50.882;5.350;2023-02-22T17:33:12;78.82;;;24.02;;
18752;SDS011;9505;50.882;5.350;2023-02-22T17:35:40;65.70;;;22.65;;
18752;SDS011;9505;50.882;5.350;2023-02-22T17:38:06;76.75;;;24.75;;